createdAt,value
2019-01-09T00:01:24.455Z,3.73
2019-01-09T00:04:28.316Z,3.72
2019-01-09T00:07:32.291Z,3.79
2019-01-09T00:10:36.176Z,3.70
2019-01-09T00:13:40.074Z,3.74
2019-01-09T00:16:43.977Z,3.75
2019-01-09T00:19:47.923Z,3.68
2019-01-09T00:22:51.797Z,3.72
2019-01-09T00:25:55.728Z,3.73
2019-01-09T00:28:59.701Z,3.73
2019-01-09T00:32:03.612Z,3.74
2019-01-09T00:35:07.567Z,3.71
2019-01-09T00:38:11.549Z,3.60
2019-01-09T00:41:15.425Z,3.67
2019-01-09T00:44:19.330Z,3.60
2019-01-09T00:47:23.191Z,3.63
2019-01-09T00:50:27.176Z,3.64
2019-01-09T00:53:31.136Z,3.59
2019-01-09T00:56:35.082Z,3.67
2019-01-09T00:59:39.019Z,3.57
2019-01-09T01:03:32.638Z,3.60
2019-01-09T01:07:06.217Z,3.57
2019-01-09T01:10:45.720Z,3.57
2019-01-09T01:14:17.226Z,3.53
2019-01-09T01:17:51.003Z,3.53
2019-01-09T01:21:02.561Z,3.51
2019-01-09T01:24:45.813Z,3.57
2019-01-09T01:28:18.103Z,3.57
2019-01-09T01:31:55.090Z,3.52
2019-01-09T01:35:38.924Z,3.52
2019-01-09T01:39:19.053Z,3.53
2019-01-09T01:43:22.068Z,3.51
2019-01-09T01:47:10.193Z,3.51
2019-01-09T01:50:41.368Z,3.50
2019-01-09T01:54:12.025Z,3.45
2019-01-09T01:57:55.222Z,3.50
2019-01-09T02:01:37.840Z,3.44
2019-01-09T02:05:14.434Z,3.51
2019-01-09T02:09:05.698Z,3.54
2019-01-09T02:12:49.609Z,3.52
2019-01-09T02:16:30.676Z,3.41
2019-01-09T02:19:43.527Z,3.50
2019-01-09T02:23:12.001Z,3.37
2019-01-09T02:26:29.645Z,3.56
2019-01-09T02:30:03.785Z,3.47
2019-01-09T02:33:07.566Z,3.48
2019-01-09T02:36:13.580Z,3.51
2019-01-09T02:39:16.990Z,3.58
2019-01-09T02:42:20.889Z,3.55
2019-01-09T02:45:24.688Z,3.59
2019-01-09T02:48:28.521Z,3.56
2019-01-09T02:51:32.402Z,3.49
2019-01-09T02:54:36.220Z,3.51
2019-01-09T02:57:40.016Z,3.52
2019-01-09T03:00:43.831Z,3.50
2019-01-09T03:03:47.621Z,3.38
2019-01-09T03:06:51.425Z,3.46
2019-01-09T03:09:55.313Z,3.44
2019-01-09T03:12:59.194Z,3.46
2019-01-09T03:16:03.150Z,3.46
2019-01-09T03:19:07.039Z,3.38
2019-01-09T03:22:10.982Z,3.37
2019-01-09T03:25:14.944Z,3.38
2019-01-09T03:28:18.797Z,3.38
2019-01-09T03:31:22.673Z,3.42
2019-01-09T03:34:26.544Z,3.37
2019-01-09T03:37:30.429Z,3.40
2019-01-09T03:40:34.304Z,3.34
2019-01-09T03:43:38.184Z,3.28
2019-01-09T03:46:42.128Z,3.25
2019-01-09T03:49:46.007Z,3.21
2019-01-09T03:52:49.817Z,3.21
2019-01-09T03:55:53.633Z,3.26
2019-01-09T03:58:57.608Z,3.24
2019-01-09T04:02:01.514Z,3.16
2019-01-09T04:05:05.491Z,3.26
2019-01-09T04:08:09.316Z,3.28
2019-01-09T04:11:13.130Z,3.25
2019-01-09T04:14:17.089Z,3.26
2019-01-09T04:17:20.893Z,3.22
2019-01-09T04:20:24.766Z,3.23
2019-01-09T04:23:28.598Z,3.27
2019-01-09T04:26:32.405Z,3.23
2019-01-09T04:29:36.232Z,3.18
2019-01-09T04:32:40.095Z,3.16
2019-01-09T04:35:43.843Z,3.23
2019-01-09T04:38:47.707Z,3.16
2019-01-09T04:41:51.557Z,3.11
2019-01-09T04:44:55.339Z,3.17
2019-01-09T04:47:59.143Z,3.11
2019-01-09T04:51:02.959Z,3.10
2019-01-09T04:54:06.842Z,3.08
2019-01-09T04:57:10.664Z,3.03
2019-01-09T05:00:14.533Z,3.06
2019-01-09T05:03:18.339Z,3.12
2019-01-09T05:06:22.128Z,3.03
2019-01-09T05:09:25.931Z,3.16
2019-01-09T05:12:29.742Z,3.09
2019-01-09T05:15:33.557Z,3.16
2019-01-09T05:18:37.483Z,3.13
2019-01-09T05:21:41.274Z,3.14
2019-01-09T05:24:45.706Z,3.07
2019-01-09T05:27:49.765Z,3.14
2019-01-09T05:30:53.591Z,3.11
2019-01-09T05:33:57.430Z,3.09
2019-01-09T05:37:09.190Z,2.99
2019-01-09T05:40:06.889Z,3.10
2019-01-09T05:43:10.689Z,3.03
2019-01-09T05:46:14.504Z,3.07
2019-01-09T05:49:18.305Z,3.06
2019-01-09T05:52:22.095Z,3.10
2019-01-09T05:55:25.868Z,3.09
2019-01-09T05:58:29.673Z,3.10
2019-01-09T06:01:33.536Z,3.09
2019-01-09T06:04:37.351Z,3.07
2019-01-09T06:07:41.314Z,3.20
2019-01-09T06:10:45.111Z,3.04
2019-01-09T06:13:48.939Z,3.08
2019-01-09T06:16:52.749Z,3.14
2019-01-09T06:19:56.577Z,3.18
2019-01-09T06:23:00.444Z,3.15
2019-01-09T06:26:04.345Z,3.10
2019-01-09T06:29:08.146Z,3.10
2019-01-09T06:32:11.920Z,3.08
2019-01-09T06:35:15.803Z,3.10
2019-01-09T06:38:19.695Z,3.07
2019-01-09T06:41:23.474Z,3.10
2019-01-09T06:44:27.367Z,3.05
2019-01-09T06:47:31.172Z,3.07
2019-01-09T06:50:35.018Z,3.04
2019-01-09T06:53:38.809Z,3.07
2019-01-09T06:56:42.594Z,3.10
2019-01-09T06:59:46.389Z,3.05
2019-01-09T07:02:50.213Z,3.01
2019-01-09T07:05:54.017Z,3.00
2019-01-09T07:08:57.825Z,3.01
2019-01-09T07:12:01.631Z,2.96
2019-01-09T07:15:11.284Z,2.94
2019-01-09T07:18:11.259Z,2.93
2019-01-09T07:21:15.060Z,2.93
2019-01-09T07:24:18.934Z,2.97
2019-01-09T07:27:22.751Z,2.93
2019-01-09T07:30:26.704Z,2.90
2019-01-09T07:33:30.511Z,2.92
2019-01-09T07:36:34.301Z,2.92
2019-01-09T07:39:38.173Z,2.95
2019-01-09T07:42:41.999Z,2.91
2019-01-09T07:45:45.786Z,2.93
2019-01-09T07:48:49.587Z,2.82
2019-01-09T07:51:53.400Z,2.82
2019-01-09T07:54:57.216Z,2.74
2019-01-09T07:58:01.092Z,2.69
2019-01-09T08:01:05.056Z,2.71
2019-01-09T08:04:08.859Z,2.77
2019-01-09T08:07:12.686Z,2.72
2019-01-09T08:10:16.492Z,2.67
2019-01-09T08:13:20.388Z,2.63
2019-01-09T08:16:24.246Z,2.63
2019-01-09T08:19:28.058Z,2.67
2019-01-09T08:22:31.853Z,2.72
2019-01-09T08:25:35.666Z,2.63
2019-01-09T08:28:39.463Z,2.69
2019-01-09T08:31:43.295Z,2.68
2019-01-09T08:34:47.081Z,2.65
2019-01-09T08:37:50.902Z,2.64
2019-01-09T08:40:54.770Z,2.75
2019-01-09T08:43:58.566Z,2.77
2019-01-09T08:47:02.369Z,2.83
2019-01-09T08:50:08.432Z,2.76
2019-01-09T08:53:12.314Z,2.84
2019-01-09T08:56:16.115Z,2.84
2019-01-09T08:59:19.926Z,2.88
2019-01-09T09:02:23.719Z,2.90
2019-01-09T09:05:27.520Z,2.96
2019-01-09T09:08:31.579Z,2.93
2019-01-09T09:11:35.460Z,2.92
2019-01-09T09:14:39.343Z,2.93
2019-01-09T09:17:43.290Z,2.96
2019-01-09T09:20:47.078Z,3.02
2019-01-09T09:23:50.898Z,3.06
2019-01-09T09:26:54.700Z,3.10
2019-01-09T09:29:58.499Z,3.10
2019-01-09T09:33:02.395Z,3.19
2019-01-09T09:36:06.257Z,3.26
2019-01-09T09:39:11.166Z,3.30
2019-01-09T09:42:14.974Z,3.29
2019-01-09T09:45:18.782Z,3.31
2019-01-09T09:48:22.571Z,3.58
2019-01-09T09:51:26.457Z,3.77
2019-01-09T09:54:30.298Z,3.92
2019-01-09T09:57:34.169Z,4.15
2019-01-09T10:00:38.065Z,4.33
2019-01-09T10:03:41.848Z,4.01
2019-01-09T10:06:45.684Z,3.75
2019-01-09T10:09:49.559Z,3.61
2019-01-09T10:12:53.443Z,3.55
2019-01-09T10:15:57.257Z,3.56
2019-01-09T10:19:01.104Z,3.68
2019-01-09T10:22:05.057Z,3.54
2019-01-09T10:25:09.027Z,3.45
2019-01-09T10:28:12.914Z,3.42
2019-01-09T10:31:16.787Z,3.41
2019-01-09T10:34:20.593Z,3.38
2019-01-09T10:37:24.557Z,3.37
2019-01-09T10:40:36.112Z,3.43
2019-01-09T10:43:34.058Z,3.42
2019-01-09T10:46:37.939Z,3.45
2019-01-09T10:49:41.820Z,3.46
2019-01-09T10:52:45.732Z,3.51
2019-01-09T10:55:49.597Z,3.53
2019-01-09T10:58:53.398Z,3.56
2019-01-09T11:01:57.190Z,3.57
2019-01-09T11:05:01.022Z,3.64
2019-01-09T11:08:04.884Z,3.64
2019-01-09T11:11:08.756Z,3.60
2019-01-09T11:14:12.614Z,3.66
2019-01-09T11:17:16.419Z,3.64
2019-01-09T11:20:21.413Z,3.63
2019-01-09T11:23:25.296Z,3.64
2019-01-09T11:26:29.097Z,3.66
2019-01-09T11:29:32.904Z,3.69
2019-01-09T11:32:36.813Z,3.70
2019-01-09T11:35:40.693Z,3.77
2019-01-09T11:38:44.552Z,3.79
2019-01-09T11:41:48.412Z,3.83
2019-01-09T11:44:52.216Z,3.86
2019-01-09T11:47:56.120Z,3.91
2019-01-09T11:50:59.928Z,3.90
2019-01-09T11:54:03.820Z,3.98
2019-01-09T11:57:07.711Z,4.01
2019-01-09T12:00:20.642Z,3.99
2019-01-09T12:03:24.424Z,3.99
2019-01-09T12:06:28.235Z,4.00
2019-01-09T12:09:32.149Z,4.03
2019-01-09T12:12:36.107Z,4.12
2019-01-09T12:15:39.923Z,4.12
2019-01-09T12:18:43.762Z,4.14
2019-01-09T12:21:47.699Z,4.13
2019-01-09T12:24:51.490Z,4.14
2019-01-09T12:27:55.302Z,4.12
2019-01-09T12:30:59.160Z,4.14
2019-01-09T12:34:03.050Z,4.14
2019-01-09T12:37:06.910Z,4.13
2019-01-09T12:40:11.190Z,4.13
2019-01-09T12:43:15.088Z,4.14
2019-01-09T12:46:18.901Z,4.15
2019-01-09T12:49:22.718Z,4.16
2019-01-09T12:52:26.642Z,4.19
2019-01-09T12:55:30.502Z,4.22
2019-01-09T12:58:34.301Z,4.25
2019-01-09T13:01:38.142Z,4.26
2019-01-09T13:04:42.065Z,4.21
2019-01-09T13:07:45.868Z,4.23
2019-01-09T13:10:49.699Z,4.27
2019-01-09T13:13:53.509Z,4.30
2019-01-09T13:16:57.333Z,4.29
2019-01-09T13:20:01.109Z,4.30
2019-01-09T13:23:04.949Z,4.31
2019-01-09T13:26:08.807Z,4.22
2019-01-09T13:29:12.608Z,4.23
2019-01-09T13:32:16.552Z,4.21
2019-01-09T13:35:20.474Z,4.16
2019-01-09T13:38:24.277Z,4.16
2019-01-09T13:41:28.103Z,4.17
2019-01-09T13:44:31.987Z,4.17
2019-01-09T13:47:35.803Z,4.12
2019-01-09T13:50:39.742Z,4.07
2019-01-09T13:53:43.659Z,4.12
2019-01-09T13:56:47.462Z,4.08
2019-01-09T13:59:51.269Z,4.04
2019-01-09T14:02:55.144Z,3.99
2019-01-09T14:05:59.009Z,3.93
2019-01-09T14:09:03.157Z,3.96
2019-01-09T14:12:07.026Z,3.99
2019-01-09T14:15:13.355Z,3.95
2019-01-09T14:18:17.196Z,3.93
2019-01-09T14:21:21.003Z,3.89
2019-01-09T14:24:24.910Z,3.85
2019-01-09T14:27:28.697Z,3.80
2019-01-09T14:30:32.602Z,3.83
2019-01-09T14:33:36.381Z,3.78
2019-01-09T14:36:40.261Z,3.78
2019-01-09T14:39:48.123Z,3.77
2019-01-09T14:42:49.678Z,3.74
2019-01-09T14:45:53.462Z,3.66
2019-01-09T14:48:57.292Z,3.64
2019-01-09T14:52:01.199Z,3.64
2019-01-09T14:55:06.190Z,3.63
2019-01-09T14:58:10.073Z,3.56
2019-01-09T15:01:13.958Z,3.54
2019-01-09T15:04:17.864Z,3.44
2019-01-09T15:07:21.749Z,3.46
2019-01-09T15:10:28.010Z,3.32
2019-01-09T15:13:31.862Z,3.35
2019-01-09T15:16:35.828Z,3.29
2019-01-09T15:19:39.808Z,3.32
2019-01-09T15:22:43.669Z,3.25
2019-01-09T15:25:49.045Z,3.12
2019-01-09T15:28:53.062Z,3.17
2019-01-09T15:31:56.880Z,3.25
2019-01-09T15:35:00.786Z,3.20
2019-01-09T15:38:04.763Z,3.17
2019-01-09T15:41:08.706Z,3.23
2019-01-09T15:44:12.527Z,3.22
2019-01-09T15:47:16.365Z,3.26
2019-01-09T15:50:21.135Z,3.28
2019-01-09T15:53:25.016Z,3.27
2019-01-09T15:56:28.930Z,3.28
2019-01-09T15:59:32.747Z,3.25
2019-01-09T16:02:36.599Z,3.29
2019-01-09T16:05:40.469Z,3.26
2019-01-09T16:08:44.300Z,3.18
2019-01-09T16:11:48.934Z,3.09
2019-01-09T16:14:52.813Z,3.06
2019-01-09T16:17:56.764Z,3.13
2019-01-09T16:21:00.653Z,3.08
2019-01-09T16:24:04.538Z,3.01
2019-01-09T16:27:08.352Z,3.04
2019-01-09T16:30:33.918Z,2.98
2019-01-09T16:33:33.301Z,2.98
2019-01-09T16:36:37.701Z,2.96
2019-01-09T16:39:41.585Z,3.08
2019-01-09T16:42:45.412Z,3.06
2019-01-09T16:45:49.362Z,3.11
2019-01-09T16:48:53.319Z,3.10
2019-01-09T16:51:57.143Z,3.01
2019-01-09T16:55:00.998Z,3.05
2019-01-09T16:58:05.161Z,2.98
2019-01-09T17:01:09.121Z,3.07
2019-01-09T17:04:12.989Z,3.06
2019-01-09T17:07:17.044Z,3.00
2019-01-09T17:10:20.999Z,2.98
2019-01-09T17:13:24.905Z,3.03
2019-01-09T17:16:28.726Z,2.99
2019-01-09T17:19:32.614Z,2.91
2019-01-09T17:22:36.481Z,3.00
2019-01-09T17:25:40.371Z,3.13
2019-01-09T17:28:44.619Z,3.04
2019-01-09T17:31:48.436Z,3.09
2019-01-09T17:34:52.229Z,3.02
2019-01-09T17:37:56.180Z,3.11
2019-01-09T17:40:59.979Z,3.19
2019-01-09T17:44:04.059Z,3.22
2019-01-09T17:47:07.918Z,3.17
2019-01-09T17:50:19.127Z,3.27
2019-01-09T17:53:23.035Z,3.29
2019-01-09T17:56:26.883Z,3.25
2019-01-09T17:59:32.647Z,3.24
2019-01-09T18:02:36.375Z,3.27
2019-01-09T18:05:40.174Z,3.21
2019-01-09T18:08:44.024Z,3.28
2019-01-09T18:11:47.841Z,3.23
2019-01-09T18:14:51.950Z,3.27
2019-01-09T18:17:55.921Z,3.24
2019-01-09T18:20:59.737Z,3.24
2019-01-09T18:24:03.697Z,3.20
2019-01-09T18:27:07.667Z,3.30
2019-01-09T18:30:20.550Z,3.30
2019-01-09T18:33:36.587Z,3.17
2019-01-09T18:36:56.821Z,3.34
2019-01-09T18:40:29.069Z,3.30
2019-01-09T18:43:42.738Z,3.22
2019-01-09T18:47:12.638Z,3.26
2019-01-09T18:50:50.642Z,3.36
2019-01-09T18:53:55.630Z,3.18
2019-01-09T18:56:59.518Z,3.19
2019-01-09T19:00:03.495Z,3.17
2019-01-09T19:03:07.616Z,3.13
2019-01-09T19:06:11.500Z,3.16
2019-01-09T19:09:15.460Z,3.15
2019-01-09T19:12:19.340Z,3.16
2019-01-09T19:15:23.325Z,3.09
2019-01-09T19:18:27.196Z,3.09
2019-01-09T19:21:31.159Z,3.14
2019-01-09T19:24:35.142Z,3.18
2019-01-09T19:27:39.109Z,3.26
2019-01-09T19:30:43.002Z,3.19
2019-01-09T19:33:46.953Z,3.08
2019-01-09T19:36:50.935Z,3.09
2019-01-09T19:39:54.948Z,3.12
2019-01-09T19:42:58.694Z,3.07
2019-01-09T19:46:02.655Z,3.00
2019-01-09T19:49:06.631Z,3.04
2019-01-09T19:52:10.500Z,3.00
2019-01-09T19:55:14.706Z,2.97
2019-01-09T19:58:18.585Z,2.90
2019-01-09T20:01:22.642Z,2.87
2019-01-09T20:04:26.607Z,2.90
2019-01-09T20:07:30.526Z,2.84
2019-01-09T20:10:34.490Z,2.79
2019-01-09T20:13:38.483Z,2.83
2019-01-09T20:16:42.433Z,2.76
2019-01-09T20:19:46.364Z,2.62
2019-01-09T20:22:51.661Z,2.75
2019-01-09T20:25:55.643Z,2.62
2019-01-09T20:28:59.471Z,2.64
2019-01-09T20:32:03.399Z,2.71
2019-01-09T20:35:07.696Z,2.69
2019-01-09T20:38:11.571Z,2.55
2019-01-09T20:41:15.521Z,2.64
2019-01-09T20:44:19.394Z,2.63
2019-01-09T20:47:23.376Z,2.66
2019-01-09T20:50:29.923Z,2.51
2019-01-09T20:53:33.872Z,2.48
2019-01-09T20:56:37.635Z,2.28
2019-01-09T20:59:42.633Z,2.22
2019-01-09T21:02:46.732Z,2.01
2019-01-09T21:05:52.629Z,2.04
2019-01-09T21:08:59.667Z,1.94
2019-01-09T21:12:02.117Z,1.95
2019-01-09T21:15:07.271Z,1.74
2019-01-09T21:18:11.232Z,1.86
2019-01-09T21:21:15.148Z,1.82
2019-01-09T21:24:19.184Z,1.76
2019-01-09T21:27:23.009Z,1.92
2019-01-09T21:30:26.923Z,1.91
2019-01-09T21:33:30.763Z,1.88
2019-01-09T21:36:34.720Z,1.78
2019-01-09T21:39:38.599Z,1.82
2019-01-09T21:42:42.485Z,1.73
2019-01-09T21:45:46.376Z,1.61
2019-01-09T21:48:50.168Z,1.60
2019-01-09T21:51:54.081Z,1.76
2019-01-09T21:54:57.908Z,1.62
2019-01-09T21:58:01.691Z,1.65
2019-01-09T22:01:05.635Z,1.55
2019-01-09T22:04:09.441Z,1.46
2019-01-09T22:07:15.329Z,1.36
2019-01-09T22:10:24.807Z,1.33
2019-01-09T22:13:28.719Z,1.27
2019-01-09T22:16:32.606Z,1.23
2019-01-09T22:19:36.495Z,1.16
2019-01-09T22:22:40.299Z,1.16
2019-01-09T22:25:44.283Z,1.15
2019-01-09T22:28:48.163Z,1.19
2019-01-09T22:31:52.046Z,1.05
2019-01-09T22:34:56.033Z,1.06
2019-01-09T22:37:59.966Z,1.12
2019-01-09T22:41:03.941Z,1.14
2019-01-09T22:44:07.752Z,1.02
2019-01-09T22:47:11.651Z,1.15
2019-01-09T22:50:20.653Z,1.07
2019-01-09T22:53:24.536Z,1.04
2019-01-09T22:56:28.423Z,1.09
2019-01-09T22:59:32.231Z,0.98
2019-01-09T23:02:36.107Z,0.98
2019-01-09T23:05:40.615Z,1.02
2019-01-09T23:08:44.485Z,0.97
2019-01-09T23:11:48.357Z,0.86
2019-01-09T23:14:52.238Z,0.78
2019-01-09T23:17:56.421Z,0.85
2019-01-09T23:21:00.281Z,0.83
2019-01-09T23:24:04.369Z,0.84
2019-01-09T23:27:08.229Z,0.94
2019-01-09T23:30:12.399Z,0.91
2019-01-09T23:33:16.359Z,0.74
2019-01-09T23:36:20.329Z,0.62
2019-01-09T23:39:24.187Z,0.60
2019-01-09T23:42:30.531Z,0.62
2019-01-09T23:45:33.631Z,0.47
2019-01-09T23:48:37.436Z,0.43
2019-01-09T23:51:41.389Z,0.42
2019-01-09T23:54:45.190Z,0.35
2019-01-09T23:57:48.996Z,0.37
